Change the Weather History Date:

Tuesday, November 20, 2012

  Actual Average Record
Temperature  
Mean Temperature 34 °F -  
Max Temperature 46 °F 29 °F 50 °F (2006)
Min Temperature 21 °F 13 °F -24 °F (1978)
Degree Days  
Heating Degree Days 32    
Moisture  
Dew Point 25 °F    
Average Humidity 75    
Maximum Humidity 86    
Minimum Humidity 53    
Precipitation  
Precipitation 0.00 in - - ()
Sea Level Pressure  
Sea Level Pressure 30.00 in    
Wind  
Wind Speed 5 mph (South)    
Max Wind Speed 15 mph    
Max Gust Speed -    
Visibility 7 miles    
Events Fog    
Averages and records for this station are not official NWS values.
T = Trace of Precipitation, MM = Missing Value Source: NWS Daily Summary

Daily Weather History Graph

Daily Weather History Graph

Search for Another Location

Airport or City:

Trip Planner

Search our weather history database for the weather conditions in past years. The results will help you decide how hot, cold, wet, or windy it might be!

Date:

Astronomy

Nov. 20, 2012 Rise Set
Actual Time 7:40 AM CST 4:36 PM CST
Civil Twilight 7:05 AM CST 5:11 PM CST
Nautical Twilight 6:26 AM CST 5:50 PM CST
Astronomical Twilight 5:48 AM CST 6:27 PM CST
Moon 12:57 PM CST (11/20) No Moon Set
Length of Visible Light 10h 06m
Length of Day
8h 56m
First Quarter, 51% of the Moon is Illuminated
Nov 20
First Quarter
Nov 28
Full
Dec 6
Last Quarter
Dec 13
New
Dec 19
First Quarter

Hourly Weather History & Observations

Time (CST) Temp. Windchill Dew Point Humidity Pressure Visibility Wind Dir Wind Speed Gust Speed Precip Events Conditions
12:15 AM 24.8 °F 19.1 °F 19.4 °F 80% 30.13 in 0.2 mi South 4.6 mph - N/A Fog Light Freezing Fog
12:34 AM 24.8 °F 19.1 °F 19.4 °F 80% 30.13 in 0.2 mi South 4.6 mph - N/A Fog Light Freezing Fog
12:54 AM 24.8 °F 20.5 °F 19.4 °F 80% 30.13 in 0.2 mi South 3.5 mph - N/A Fog Light Freezing Fog
1:15 AM 24.8 °F - 19.4 °F 80% 30.13 in 2.5 mi Calm Calm - N/A   Haze
1:34 AM 24.8 °F 20.5 °F 19.4 °F 80% 30.14 in 0.2 mi SW 3.5 mph - N/A Fog Light Freezing Fog
1:54 AM 24.8 °F - 19.4 °F 80% 30.14 in 2.0 mi Calm Calm - N/A   Haze
2:14 AM 24.8 °F - 19.4 °F 80% 30.14 in 2.0 mi Calm Calm - N/A   Haze
2:34 AM 23.0 °F - 19.4 °F 86% 30.14 in 0.5 mi Calm Calm - N/A Fog Light Freezing Fog
2:54 AM 23.0 °F 17.0 °F 17.6 °F 80% 30.14 in 0.5 mi South 4.6 mph - N/A   Haze
3:14 AM 21.2 °F 16.4 °F 17.6 °F 86% 30.13 in 2.0 mi South 3.5 mph - N/A   Mostly Cloudy
3:34 AM 23.0 °F 18.4 °F 19.4 °F 86% 30.12 in 3.0 mi South 3.5 mph - N/A   Clear
3:54 AM 24.8 °F 19.1 °F 19.4 °F 80% 30.11 in 4.0 mi SSE 4.6 mph - N/A   Haze
4:14 AM 21.2 °F - 17.6 °F 86% 30.11 in 4.0 mi Calm Calm - N/A   Clear
4:34 AM 23.0 °F - 19.4 °F 86% 30.11 in 3.0 mi Calm Calm - N/A   Clear
4:54 AM 21.2 °F - 17.6 °F 86% 30.11 in 4.0 mi Calm Calm - N/A   Haze
5:14 AM 21.2 °F - 17.6 °F 86% 30.12 in 4.0 mi Calm Calm - N/A   Haze
5:34 AM 23.0 °F - 17.6 °F 80% 30.12 in 3.0 mi Calm Calm - N/A   Haze
5:54 AM 23.0 °F 17.0 °F 17.6 °F 80% 30.11 in 0.2 mi SSE 4.6 mph - N/A   Haze
6:14 AM 23.0 °F - 17.6 °F 80% 30.11 in 0.2 mi Calm Calm - N/A   Haze
6:34 AM 21.2 °F 14.9 °F 17.6 °F 86% 30.11 in 1.2 mi SSE 4.6 mph - N/A   Mostly Cloudy
6:54 AM 21.2 °F 16.4 °F 17.6 °F 86% 30.11 in 4.0 mi SSE 3.5 mph - N/A   Clear
7:14 AM 21.2 °F 16.4 °F 17.6 °F 86% 30.11 in 5.0 mi SSE 3.5 mph - N/A   Haze
7:34 AM 21.2 °F 16.4 °F 17.6 °F 86% 30.10 in 5.0 mi SSE 3.5 mph - N/A   Clear
7:55 AM 24.8 °F 17.9 °F 19.4 °F 80% 30.09 in 3.0 mi SSE 5.8 mph - N/A   Haze
8:14 AM 24.8 °F 19.1 °F 19.4 °F 80% 30.09 in 4.0 mi SSE 4.6 mph - N/A   Haze
8:34 AM 26.6 °F 21.2 °F 21.2 °F 80% 30.09 in 4.0 mi SSE 4.6 mph - N/A   Clear
8:55 AM 26.6 °F 22.6 °F 23.0 °F 86% 30.09 in 5.0 mi SE 3.5 mph - N/A   Clear
9:14 AM 28.4 °F 23.3 °F 23.0 °F 80% 30.08 in 5.0 mi SSE 4.6 mph - N/A   Haze
9:34 AM 28.4 °F 22.2 °F 24.8 °F 86% 30.07 in 5.0 mi South 5.8 mph - N/A   Haze
9:54 AM 30.2 °F 22.6 °F 24.8 °F 80% 30.06 in 7.0 mi South 8.1 mph - N/A   Clear
10:14 AM 32.0 °F 24.8 °F 26.6 °F 80% 30.05 in 7.0 mi South 8.1 mph - N/A   Clear
10:35 AM 33.8 °F 26.4 °F 28.4 °F 81% 30.05 in 10.0 mi South 9.2 mph - N/A   Clear
10:54 AM 35.6 °F 27.5 °F 30.2 °F 81% 30.04 in 10.0 mi SSE 11.5 mph - N/A   Clear
11:14 AM 37.4 °F 29.8 °F 32.0 °F 81% 30.05 in 10.0 mi South 11.5 mph - N/A   Clear
11:35 AM 39.2 °F 31.2 °F 32.0 °F 75% 30.04 in 10.0 mi South 13.8 mph - N/A   Clear
11:54 AM 39.2 °F 32.5 °F 33.8 °F 81% 30.03 in 10.0 mi South 10.4 mph - N/A   Clear
12:14 PM 41.0 °F 33.9 °F 32.0 °F 70% 30.00 in 10.0 mi South 12.7 mph - N/A   Clear
12:35 PM 42.8 °F 35.4 °F 30.2 °F 61% 29.99 in 10.0 mi South 15.0 mph - N/A   Clear
12:54 PM 42.8 °F 36.2 °F 32.0 °F 66% 29.98 in 10.0 mi South 12.7 mph - N/A   Clear
1:14 PM 42.8 °F 36.2 °F 30.2 °F 61% 29.97 in 10.0 mi South 12.7 mph - N/A   Clear
1:34 PM 42.8 °F 35.8 °F 32.0 °F 66% 29.97 in 10.0 mi South 13.8 mph - N/A   Clear
1:54 PM 44.6 °F 38.1 °F 32.0 °F 61% 29.96 in 10.0 mi South 13.8 mph - N/A   Clear
2:14 PM 44.6 °F 38.8 °F 32.0 °F 61% 29.95 in 10.0 mi South 11.5 mph - N/A   Clear
2:34 PM 44.6 °F 38.4 °F 32.0 °F 61% 29.95 in 10.0 mi South 12.7 mph - N/A   Clear
2:54 PM 46.4 °F 41.1 °F 30.2 °F 53% 29.95 in 10.0 mi South 11.5 mph - N/A   Clear
3:14 PM 44.6 °F 39.7 °F 30.2 °F 57% 29.93 in 10.0 mi South 9.2 mph - N/A   Clear
3:34 PM 44.6 °F 39.7 °F 30.2 °F 57% 29.93 in 10.0 mi South 9.2 mph - N/A   Clear
3:54 PM 41.0 °F 35.8 °F 32.0 °F 70% 29.92 in 10.0 mi South 8.1 mph - N/A   Clear
4:14 PM 41.0 °F 36.4 °F 30.2 °F 65% 29.91 in 10.0 mi SSE 6.9 mph - N/A   Clear
4:34 PM 39.2 °F 35.9 °F 30.2 °F 70% 29.92 in 10.0 mi South 4.6 mph - N/A   Clear
4:54 PM 39.2 °F - 30.2 °F 70% 29.92 in 10.0 mi Calm Calm - N/A   Clear
5:14 PM 39.2 °F 35.0 °F 30.2 °F 70% 29.90 in 10.0 mi SSE 5.8 mph - N/A   Clear
5:34 PM 37.4 °F 32.8 °F 28.4 °F 70% 29.90 in 10.0 mi South 5.8 mph - N/A   Clear
5:54 PM 37.4 °F 32.8 °F 28.4 °F 70% 29.90 in 10.0 mi South 5.8 mph - N/A   Clear
6:14 PM 37.4 °F - 28.4 °F 70% 29.91 in 10.0 mi Calm Calm - N/A   Clear
6:35 PM 37.4 °F - 28.4 °F 70% 29.91 in 10.0 mi Calm Calm - N/A   Clear
6:54 PM 37.4 °F 32.1 °F 28.4 °F 70% 29.90 in 10.0 mi South 6.9 mph - N/A   Clear
7:14 PM 35.6 °F 30.7 °F 28.4 °F 75% 29.90 in 10.0 mi South 5.8 mph - N/A   Clear
7:35 PM 35.6 °F 28.6 °F 28.4 °F 75% 29.88 in 10.0 mi South 9.2 mph - N/A   Clear
7:54 PM 35.6 °F 28.6 °F 28.4 °F 75% 29.88 in 10.0 mi South 9.2 mph - N/A   Clear
8:14 PM 35.6 °F 29.9 °F 28.4 °F 75% 29.87 in 10.0 mi South 6.9 mph - N/A   Clear
8:35 PM 35.6 °F 29.9 °F 28.4 °F 75% 29.87 in 10.0 mi SSW 6.9 mph - N/A   Clear
8:54 PM 35.6 °F 29.9 °F 26.6 °F 70% 29.86 in 10.0 mi South 6.9 mph - N/A   Clear
9:14 PM 35.6 °F 30.7 °F 26.6 °F 70% 29.86 in 10.0 mi South 5.8 mph - N/A   Clear
9:35 PM 33.8 °F 28.6 °F 26.6 °F 75% 29.86 in 10.0 mi South 5.8 mph - N/A   Clear
9:54 PM 37.4 °F 32.8 °F 26.6 °F 65% 29.87 in 10.0 mi SSW 5.8 mph - N/A   Clear
10:14 PM 37.4 °F 32.1 °F 26.6 °F 65% 29.86 in 10.0 mi South 6.9 mph - N/A   Clear
10:35 PM 35.6 °F 29.2 °F 26.6 °F 70% 29.86 in 10.0 mi South 8.1 mph - N/A   Clear
10:54 PM 35.6 °F 29.2 °F 26.6 °F 70% 29.86 in 10.0 mi South 8.1 mph - N/A   Clear
11:13 PM 35.6 °F 28.6 °F 28.4 °F 75% 29.85 in 10.0 mi South 9.2 mph - N/A   Clear
11:35 PM 35.6 °F 28.6 °F 28.4 °F 75% 29.84 in 10.0 mi South 9.2 mph - N/A   Clear
11:53 PM 35.6 °F 29.2 °F 28.4 °F 75% 29.84 in 10.0 mi South 8.1 mph - N/A   Clear